createdAt,value
2022-11-11T00:02:57.828Z,11.37
2022-11-11T00:05:42.691Z,11.70
2022-11-11T00:08:27.502Z,13.23
2022-11-11T00:11:12.777Z,14.03
2022-11-11T00:13:57.717Z,14.31
2022-11-11T00:17:01.277Z,14.75
2022-11-11T00:20:04.715Z,14.60
2022-11-11T00:23:07.991Z,13.08
2022-11-11T00:26:06.275Z,11.94
2022-11-11T00:28:58.041Z,11.13
2022-11-11T00:32:01.388Z,11.66
2022-11-11T00:35:05.968Z,13.35
2022-11-11T00:37:50.811Z,13.95
2022-11-11T00:40:36.767Z,14.47
2022-11-11T00:43:21.514Z,14.58
2022-11-11T00:46:25.289Z,14.12
2022-11-11T00:49:28.318Z,12.79
2022-11-11T00:52:13.646Z,11.78
2022-11-11T00:54:58.751Z,12.04
2022-11-11T00:57:43.673Z,13.72
2022-11-11T01:00:28.586Z,14.67
2022-11-11T01:03:13.610Z,15.36
2022-11-11T01:06:03.378Z,14.80
2022-11-11T01:08:48.589Z,13.41
2022-11-11T01:11:33.262Z,12.43
2022-11-11T01:14:18.056Z,11.75
2022-11-11T01:17:04.301Z,12.22
2022-11-11T01:19:49.107Z,14.06
2022-11-11T01:22:33.947Z,14.91
2022-11-11T01:25:18.995Z,15.35
2022-11-11T01:28:05.701Z,14.95
2022-11-11T01:30:50.839Z,13.70
2022-11-11T01:33:36.479Z,12.75
2022-11-11T01:36:26.545Z,12.02
2022-11-11T01:39:11.575Z,12.35
2022-11-11T01:42:01.402Z,13.71
2022-11-11T01:44:47.819Z,14.47
2022-11-11T01:51:00.550Z,15.36
2022-11-11T01:53:51.725Z,14.05
2022-11-11T01:56:38.882Z,13.00
2022-11-11T01:59:23.883Z,12.31
2022-11-11T02:02:24.210Z,12.64
2022-11-11T02:05:30.834Z,14.51
2022-11-11T02:08:33.509Z,15.34
2022-11-11T02:11:41.642Z,14.96
2022-11-11T02:14:35.729Z,13.54
2022-11-11T02:17:20.985Z,12.58
2022-11-11T02:20:09.274Z,11.90
2022-11-11T02:23:03.277Z,12.29
2022-11-11T02:25:49.995Z,14.07
2022-11-11T02:28:37.293Z,15.00
2022-11-11T02:31:28.224Z,14.86
2022-11-11T02:34:13.752Z,13.54
2022-11-11T02:37:02.365Z,12.50
2022-11-11T02:40:03.178Z,11.70
2022-11-11T02:42:48.937Z,12.04
2022-11-11T02:45:34.159Z,13.73
2022-11-11T02:48:19.353Z,14.57
2022-11-11T02:51:06.341Z,14.83
2022-11-11T02:53:51.436Z,14.42
2022-11-11T02:56:54.752Z,13.12
2022-11-11T02:59:40.965Z,11.97
2022-11-11T03:02:27.038Z,11.25
2022-11-11T03:05:12.231Z,11.53
2022-11-11T03:07:57.289Z,12.86
2022-11-11T03:10:42.306Z,13.73
2022-11-11T03:13:27.861Z,14.23
2022-11-11T03:16:33.429Z,14.54
2022-11-11T03:19:19.161Z,15.05
2022-11-11T03:22:53.729Z,14.37
2022-11-11T03:25:27.667Z,12.83
2022-11-11T03:28:20.710Z,11.73
2022-11-11T03:31:05.634Z,11.81
2022-11-11T03:33:50.572Z,13.18
2022-11-11T03:37:01.860Z,13.82
2022-11-11T03:39:46.849Z,14.16
2022-11-11T03:42:32.129Z,14.70
2022-11-11T03:45:17.161Z,14.62
2022-11-11T03:48:02.363Z,13.25
2022-11-11T03:50:47.729Z,12.08
2022-11-11T03:53:32.580Z,12.02
2022-11-11T03:56:17.605Z,13.71
2022-11-11T03:59:02.334Z,14.78
2022-11-11T04:02:05.938Z,14.74
2022-11-11T04:05:09.645Z,13.18
2022-11-11T04:08:12.964Z,11.95
2022-11-11T04:10:59.874Z,11.10
2022-11-11T04:14:06.769Z,11.71
2022-11-11T04:16:51.382Z,13.88
2022-11-11T04:19:54.852Z,15.08
2022-11-11T04:22:41.888Z,14.85
2022-11-11T04:25:45.299Z,13.29
2022-11-11T04:28:48.992Z,11.99
2022-11-11T04:31:33.877Z,11.11
2022-11-11T04:34:18.643Z,11.67
2022-11-11T04:37:03.648Z,13.54
2022-11-11T04:40:07.540Z,14.68
2022-11-11T04:42:53.489Z,15.24
2022-11-11T04:45:38.399Z,14.11
2022-11-11T04:48:23.119Z,12.80
2022-11-11T04:51:07.915Z,11.84
2022-11-11T04:53:52.762Z,12.00
2022-11-11T04:56:57.296Z,13.54
2022-11-11T04:59:42.414Z,14.59
2022-11-11T05:02:46.042Z,15.00
2022-11-11T05:05:51.168Z,14.07
2022-11-11T05:08:56.831Z,12.60
2022-11-11T05:11:41.666Z,11.60
2022-11-11T05:14:45.195Z,11.72
2022-11-11T05:17:48.618Z,13.26
2022-11-11T05:20:52.023Z,14.31
2022-11-11T05:23:55.417Z,15.17
2022-11-11T05:26:39.967Z,14.44
2022-11-11T05:29:24.613Z,13.13
2022-11-11T05:32:09.633Z,12.15
2022-11-11T05:34:54.564Z,11.44
2022-11-11T05:37:40.177Z,11.55
2022-11-11T05:40:25.097Z,12.90
2022-11-11T05:43:10.281Z,14.18
2022-11-11T05:45:54.919Z,14.96
2022-11-11T05:48:59.897Z,14.89
2022-11-11T05:51:46.321Z,13.38
2022-11-11T05:54:31.004Z,12.31
2022-11-11T05:57:16.021Z,11.58
2022-11-11T06:00:01.232Z,11.87
2022-11-11T06:02:45.991Z,13.62
2022-11-11T06:05:31.009Z,14.61
2022-11-11T06:08:16.098Z,14.89
2022-11-11T06:11:01.064Z,14.57
2022-11-11T06:13:45.940Z,13.30
2022-11-11T06:16:31.291Z,12.22
2022-11-11T06:19:16.084Z,11.46
2022-11-11T06:22:03.342Z,11.75
2022-11-11T06:25:08.345Z,13.28
2022-11-11T06:27:53.262Z,14.52
2022-11-11T06:30:49.433Z,15.16
2022-11-11T06:33:37.325Z,15.03
2022-11-11T06:36:22.382Z,13.67
2022-11-11T06:39:07.187Z,12.55
2022-11-11T06:41:51.975Z,11.77
2022-11-11T06:44:37.003Z,11.88
2022-11-11T06:47:21.532Z,13.14
2022-11-11T06:50:07.002Z,14.98
2022-11-11T06:52:51.969Z,15.95
2022-11-11T06:55:36.832Z,15.24
2022-11-11T06:58:22.337Z,13.74
2022-11-11T07:01:08.812Z,12.67
2022-11-11T07:03:53.901Z,11.96
2022-11-11T07:06:38.587Z,11.41
2022-11-11T07:09:25.092Z,11.70
2022-11-11T07:12:09.818Z,14.01
2022-11-11T07:14:54.677Z,16.13
2022-11-11T07:17:39.401Z,16.33
2022-11-11T07:20:24.448Z,14.76
2022-11-11T07:23:09.626Z,13.44
2022-11-11T07:25:54.588Z,12.53
2022-11-11T07:28:39.478Z,11.88
2022-11-11T07:31:24.542Z,11.92
2022-11-11T07:34:09.341Z,13.66
2022-11-11T07:36:54.486Z,15.13
2022-11-11T07:39:39.588Z,15.53
2022-11-11T07:42:31.453Z,14.85
2022-11-11T07:45:17.197Z,13.60
2022-11-11T07:48:01.860Z,12.72
2022-11-11T07:50:46.803Z,12.08
2022-11-11T07:53:31.472Z,12.19
2022-11-11T07:56:16.556Z,13.80
2022-11-11T07:59:01.278Z,15.22
2022-11-11T08:01:46.295Z,15.24
2022-11-11T08:04:31.220Z,14.07
2022-11-11T08:07:21.476Z,13.13
2022-11-11T08:10:09.556Z,12.46
2022-11-11T08:13:13.361Z,11.98
2022-11-11T08:15:58.371Z,12.49
2022-11-11T08:18:43.141Z,13.78
2022-11-11T08:21:28.217Z,14.59
2022-11-11T08:25:01.507Z,15.14
2022-11-11T08:27:17.726Z,15.48
2022-11-11T08:30:04.263Z,15.10
2022-11-11T08:33:26.547Z,14.05
2022-11-11T08:36:01.446Z,13.16
2022-11-11T08:38:46.487Z,12.65
2022-11-11T08:41:31.517Z,12.26
2022-11-11T08:44:16.187Z,12.42
2022-11-11T08:47:00.997Z,14.05
2022-11-11T08:49:48.594Z,15.32
2022-11-11T08:52:33.597Z,15.80
2022-11-11T08:55:18.705Z,15.80
2022-11-11T08:58:06.459Z,14.77
2022-11-11T09:00:51.365Z,13.88
2022-11-11T09:03:36.367Z,13.31
2022-11-11T09:06:21.141Z,12.89
2022-11-11T09:09:06.280Z,12.61
2022-11-11T09:11:50.892Z,13.07
2022-11-11T09:14:35.985Z,14.77
2022-11-11T09:17:20.606Z,15.47
2022-11-11T09:20:06.488Z,16.61
2022-11-11T09:22:52.334Z,16.08
2022-11-11T09:25:37.367Z,14.97
2022-11-11T09:28:22.121Z,14.21
2022-11-11T09:31:37.603Z,13.64
2022-11-11T09:34:13.610Z,13.20
2022-11-11T09:36:58.858Z,12.91
2022-11-11T09:39:43.755Z,13.68
2022-11-11T09:42:42.051Z,15.90
2022-11-11T09:45:45.164Z,16.12
2022-11-11T09:48:33.129Z,15.05
2022-11-11T09:51:25.172Z,14.32
2022-11-11T09:54:22.881Z,13.78
2022-11-11T09:57:40.195Z,13.35
2022-11-11T10:00:29.267Z,12.95
2022-11-11T10:03:22.604Z,13.61
2022-11-11T10:06:23.955Z,16.42
2022-11-11T10:09:24.631Z,17.25
2022-11-11T10:12:15.407Z,15.92
2022-11-11T10:15:00.776Z,14.79
2022-11-11T10:18:17.453Z,14.02
2022-11-11T10:21:10.950Z,13.42
2022-11-11T10:24:01.408Z,13.06
2022-11-11T10:26:46.928Z,12.76
2022-11-11T10:29:40.609Z,12.93
2022-11-11T10:32:29.102Z,14.40
2022-11-11T10:35:21.371Z,15.95
2022-11-11T10:38:09.326Z,17.45
2022-11-11T10:40:58.930Z,17.41
2022-11-11T10:43:47.187Z,15.96
2022-11-11T10:46:41.025Z,14.85
2022-11-11T10:49:32.409Z,14.13
2022-11-11T10:52:24.535Z,13.63
2022-11-11T10:55:21.965Z,13.24
2022-11-11T10:58:12.621Z,12.90
2022-11-11T11:01:00.947Z,12.70
2022-11-11T11:03:53.022Z,13.41
2022-11-11T11:06:42.093Z,14.83
2022-11-11T11:09:39.626Z,16.24
2022-11-11T11:12:32.187Z,16.37
2022-11-11T11:15:22.043Z,15.30
2022-11-11T11:18:18.164Z,14.47
2022-11-11T11:21:05.421Z,13.86
2022-11-11T11:23:50.565Z,13.45
2022-11-11T11:26:47.103Z,13.12
2022-11-11T11:29:41.838Z,12.83
2022-11-11T11:32:28.554Z,13.27
2022-11-11T11:35:43.501Z,14.24
2022-11-11T11:38:45.876Z,15.13
2022-11-11T11:41:49.513Z,15.94
2022-11-11T11:44:38.041Z,16.66
2022-11-11T11:47:43.144Z,16.52
2022-11-11T11:50:50.304Z,15.38
2022-11-11T11:53:38.191Z,14.45
2022-11-11T11:56:33.425Z,13.88
2022-11-11T11:59:45.814Z,13.45
2022-11-11T12:02:53.672Z,13.09
2022-11-11T12:05:51.429Z,13.37
2022-11-11T12:08:59.419Z,14.90
2022-11-11T12:11:47.066Z,16.61
2022-11-11T12:14:51.802Z,17.10
2022-11-11T12:17:54.944Z,15.84
2022-11-11T12:20:46.338Z,14.79
2022-11-11T12:23:49.432Z,14.13
2022-11-11T12:26:43.652Z,13.65
2022-11-11T12:29:34.567Z,13.32
2022-11-11T12:32:26.243Z,13.05
2022-11-11T12:35:31.100Z,12.85
2022-11-11T12:38:37.070Z,13.37
2022-11-11T12:41:26.090Z,14.90
2022-11-11T12:44:13.440Z,15.82
2022-11-11T12:47:27.070Z,16.25
2022-11-11T12:50:15.032Z,15.72
2022-11-11T12:53:18.236Z,14.85
2022-11-11T12:56:25.917Z,14.19
2022-11-11T12:59:48.311Z,13.71
2022-11-11T13:03:01.471Z,13.34
2022-11-11T13:06:04.310Z,13.08
2022-11-11T13:09:07.776Z,13.61
2022-11-11T13:12:15.401Z,16.02
2022-11-11T13:15:13.560Z,17.46
2022-11-11T13:18:01.899Z,16.57
2022-11-11T13:20:53.622Z,15.41
2022-11-11T13:23:38.573Z,14.58
2022-11-11T13:26:37.647Z,14.02
2022-11-11T13:29:28.322Z,13.58
2022-11-11T13:32:17.137Z,13.26
2022-11-11T13:35:02.295Z,13.00
2022-11-11T13:37:47.976Z,13.64
2022-11-11T13:40:37.282Z,15.82
2022-11-11T13:43:33.406Z,16.99
2022-11-11T13:46:27.483Z,16.39
2022-11-11T13:49:36.185Z,15.24
2022-11-11T13:52:27.993Z,14.36
2022-11-11T13:55:29.631Z,13.82
2022-11-11T13:58:28.119Z,13.37
2022-11-11T14:01:13.407Z,13.03
2022-11-11T14:04:01.696Z,12.79
2022-11-11T14:06:52.049Z,13.22
2022-11-11T14:09:59.573Z,14.66
2022-11-11T14:12:56.276Z,15.43
2022-11-11T14:15:49.408Z,16.90
2022-11-11T14:18:38.218Z,16.87
2022-11-11T14:21:47.761Z,15.60
2022-11-11T14:24:43.161Z,14.54
2022-11-11T14:27:31.195Z,13.89
2022-11-11T14:30:36.914Z,13.42
2022-11-11T14:33:59.629Z,12.96
2022-11-11T14:37:01.283Z,13.99
2022-11-11T14:39:58.317Z,16.36
2022-11-11T14:42:46.651Z,16.94
2022-11-11T14:45:32.475Z,15.64
2022-11-11T14:48:49.005Z,14.53
2022-11-11T14:51:45.845Z,13.59
2022-11-11T14:54:56.659Z,13.84
2022-11-11T14:58:11.393Z,16.02
2022-11-11T15:01:22.828Z,15.90
2022-11-11T15:04:08.660Z,14.54
2022-11-11T15:07:00.126Z,13.69
2022-11-11T15:10:01.590Z,13.08
2022-11-11T15:12:52.545Z,12.71
2022-11-11T15:16:06.439Z,14.16
2022-11-11T15:19:16.191Z,15.93
2022-11-11T15:22:38.912Z,16.07
2022-11-11T15:25:32.962Z,14.60
2022-11-11T15:28:33.225Z,13.68
2022-11-11T15:31:32.186Z,13.04
2022-11-11T15:34:22.208Z,12.56
2022-11-11T15:37:27.324Z,13.07
2022-11-11T15:40:20.986Z,15.69
2022-11-11T15:43:10.203Z,17.36
2022-11-11T15:46:01.381Z,17.11
2022-11-11T15:48:46.178Z,15.54
2022-11-11T15:51:36.253Z,14.42
2022-11-11T15:54:22.158Z,13.63
2022-11-11T15:57:30.566Z,13.08
2022-11-11T16:00:24.432Z,12.58
2022-11-11T16:03:17.911Z,13.42
2022-11-11T16:06:05.756Z,15.87
2022-11-11T16:08:52.418Z,16.96
2022-11-11T16:11:41.086Z,16.18
2022-11-11T16:14:29.653Z,14.87
2022-11-11T16:17:15.925Z,13.93
2022-11-11T16:20:01.683Z,13.29
2022-11-11T16:22:48.870Z,12.78
2022-11-11T16:25:34.366Z,13.17
2022-11-11T16:28:19.569Z,15.11
2022-11-11T16:31:20.569Z,16.44
2022-11-11T16:34:27.154Z,16.51
2022-11-11T16:37:15.993Z,15.06
2022-11-11T16:40:27.960Z,14.02
2022-11-11T16:43:24.404Z,13.20
2022-11-11T16:46:13.680Z,12.68
2022-11-11T16:49:00.633Z,13.14
2022-11-11T16:51:47.789Z,14.80
2022-11-11T16:54:37.846Z,16.01
2022-11-11T16:57:28.479Z,17.17
2022-11-11T17:00:16.907Z,16.95
2022-11-11T17:03:17.349Z,15.45
2022-11-11T17:06:07.126Z,14.21
2022-11-11T17:08:52.369Z,13.45
2022-11-11T17:11:40.063Z,12.89
2022-11-11T17:14:26.821Z,12.43
2022-11-11T17:17:11.800Z,13.28
2022-11-11T17:19:59.775Z,15.45
2022-11-11T17:22:56.636Z,16.52
2022-11-11T17:25:42.153Z,16.14
2022-11-11T17:28:31.032Z,14.79
2022-11-11T17:31:16.121Z,13.77
2022-11-11T17:34:06.208Z,13.06
2022-11-11T17:36:51.370Z,13.80
2022-11-11T17:39:38.390Z,16.11
2022-11-11T17:42:23.606Z,17.08
2022-11-11T17:45:08.881Z,16.40
2022-11-11T17:47:54.591Z,15.01
2022-11-11T17:50:39.716Z,13.99
2022-11-11T17:53:25.658Z,13.30
2022-11-11T17:56:10.886Z,12.76
2022-11-11T17:58:55.906Z,13.62
2022-11-11T18:01:40.928Z,15.27
2022-11-11T18:04:25.589Z,16.25
2022-11-11T18:07:10.655Z,16.44
2022-11-11T18:09:55.876Z,15.15
2022-11-11T18:12:41.245Z,14.04
2022-11-11T18:15:26.370Z,13.25
2022-11-11T18:18:11.273Z,14.10
2022-11-11T18:21:01.573Z,16.22
2022-11-11T18:23:51.395Z,16.72
2022-11-11T18:26:38.044Z,15.43
2022-11-11T18:29:23.182Z,14.18
2022-11-11T18:32:09.847Z,13.32
2022-11-11T18:34:54.828Z,12.72
2022-11-11T18:37:45.270Z,13.12
2022-11-11T18:40:31.337Z,15.93
2022-11-11T18:43:16.445Z,17.30
2022-11-11T18:46:06.770Z,17.02
2022-11-11T18:49:00.108Z,15.47
2022-11-11T18:51:44.992Z,14.24
2022-11-11T18:54:30.720Z,13.43
2022-11-11T18:57:15.655Z,12.85
2022-11-11T19:00:00.677Z,13.53
2022-11-11T19:02:45.446Z,15.67
2022-11-11T19:05:30.529Z,16.27
2022-11-11T19:08:15.731Z,16.04
2022-11-11T19:11:01.204Z,14.72
2022-11-11T19:13:47.798Z,13.69
2022-11-11T19:16:35.423Z,12.95
2022-11-11T19:19:20.359Z,13.03
2022-11-11T19:22:05.301Z,14.74
2022-11-11T19:24:50.304Z,15.93
2022-11-11T19:27:36.510Z,15.86
2022-11-11T19:30:21.846Z,14.59
2022-11-11T19:33:07.277Z,13.53
2022-11-11T19:35:59.888Z,12.79
2022-11-11T19:38:47.058Z,12.90
2022-11-11T19:41:32.023Z,14.04
2022-11-11T19:44:17.107Z,14.90
2022-11-11T19:47:02.036Z,15.77
2022-11-11T19:49:46.875Z,16.36
2022-11-11T19:52:32.000Z,16.75
2022-11-11T19:55:17.154Z,16.38
2022-11-11T19:58:02.320Z,14.96
2022-11-11T20:00:47.223Z,13.77
2022-11-11T20:03:33.979Z,13.67
2022-11-11T20:06:28.493Z,15.02
2022-11-11T20:09:14.423Z,16.28
2022-11-11T20:11:59.594Z,16.98
2022-11-11T20:14:44.858Z,16.78
2022-11-11T20:17:30.017Z,15.28
2022-11-11T20:20:15.019Z,14.15
2022-11-11T20:23:05.089Z,13.26
2022-11-11T20:25:50.029Z,13.38
2022-11-11T20:28:35.156Z,14.99
2022-11-11T20:31:20.155Z,15.92
2022-11-11T20:34:07.004Z,16.30
2022-11-11T20:36:52.049Z,16.01
2022-11-11T20:39:36.735Z,14.78
2022-11-11T20:42:22.066Z,13.75
2022-11-11T20:45:10.681Z,13.02
2022-11-11T20:47:57.297Z,13.30
2022-11-11T20:50:42.133Z,15.56
2022-11-11T20:53:27.735Z,16.96
2022-11-11T20:56:23.565Z,16.55
2022-11-11T20:59:08.928Z,15.00
2022-11-11T21:01:53.927Z,13.90
2022-11-11T21:04:38.763Z,13.11
2022-11-11T21:07:24.130Z,13.79
2022-11-11T21:10:08.988Z,15.45
2022-11-11T21:12:54.295Z,16.04
2022-11-11T21:15:40.288Z,16.38
2022-11-11T21:18:26.832Z,16.52
2022-11-11T21:21:14.930Z,16.18
2022-11-11T21:24:03.804Z,14.93
2022-11-11T21:26:50.634Z,13.84
2022-11-11T21:29:35.538Z,13.08
2022-11-11T21:32:20.540Z,13.45
2022-11-11T21:35:05.726Z,15.11
2022-11-11T21:37:52.289Z,15.75
2022-11-11T21:40:37.444Z,16.05
2022-11-11T21:43:22.695Z,16.28
2022-11-11T21:46:10.147Z,15.86
2022-11-11T21:48:55.306Z,14.70
2022-11-11T21:51:40.177Z,13.77
2022-11-11T21:54:25.132Z,13.10
2022-11-11T21:57:09.833Z,13.57
2022-11-11T21:59:55.098Z,15.28
2022-11-11T22:02:39.944Z,16.79
2022-11-11T22:05:24.888Z,17.41
2022-11-11T22:08:09.463Z,17.09
2022-11-11T22:10:54.977Z,15.62
2022-11-11T22:13:41.167Z,14.49
2022-11-11T22:16:31.573Z,13.67
2022-11-11T22:19:16.558Z,14.33
2022-11-11T22:22:01.473Z,16.77
2022-11-11T22:24:46.331Z,17.55
2022-11-11T22:27:31.074Z,16.26
2022-11-11T22:30:16.319Z,14.90
2022-11-11T22:33:01.448Z,13.93
2022-11-11T22:35:46.413Z,13.27
2022-11-11T22:38:31.648Z,12.75
2022-11-11T22:41:19.534Z,13.55
2022-11-11T22:44:05.503Z,16.10
2022-11-11T22:46:50.490Z,17.17
2022-11-11T22:49:36.549Z,17.08
2022-11-11T22:52:21.286Z,15.60
2022-11-11T22:55:06.596Z,14.41
2022-11-11T22:57:51.358Z,13.59
2022-11-11T23:00:37.071Z,13.00
2022-11-11T23:03:21.726Z,13.57
2022-11-11T23:06:10.326Z,15.68
2022-11-11T23:08:56.057Z,17.08
2022-11-11T23:11:40.975Z,16.84
2022-11-11T23:14:25.834Z,15.46
2022-11-11T23:17:10.922Z,14.42
2022-11-11T23:19:55.653Z,13.72
2022-11-11T23:22:40.585Z,13.19
2022-11-11T23:25:25.528Z,13.77
2022-11-11T23:28:10.376Z,15.66
2022-11-11T23:31:07.146Z,16.76
2022-11-11T23:33:54.129Z,16.58
2022-11-11T23:36:39.123Z,15.35
2022-11-11T23:39:23.966Z,14.41
2022-11-11T23:42:08.971Z,13.76
2022-11-11T23:44:53.754Z,13.97
2022-11-11T23:47:38.656Z,15.55
2022-11-11T23:50:23.431Z,16.70
2022-11-11T23:53:08.554Z,16.69
2022-11-11T23:55:53.570Z,15.47
2022-11-11T23:58:38.439Z,14.48
